Los Angeles, CA (90039)

4:03 PM PDT on July 28, 2016 (GMT -0700)
Silver Lake GreyTop | | Change Station

Elev 538 ft 34.10 °N, 118.26 °W | Updated 6 seconds ago

Clear
Clear
89.4 °F
Feels Like 89 °F
N
0.0
Wind Variable Wind from North
Gusts 0.0 mph

Today
High -- | Low -- °F
--% Chance of Precip.
Yesterday
High -- | Low -- °F
Precip. -- in
Pressure 29.82 in
Visibility 10.0 miles
Clouds Clear
Heat Index 89 °F
Dew Point 59 °F
Humidity 36%
Rainfall 0.00 in
Snow Depth Not available.
6:01 AM 7:56 PM
Waning Crescent, 28% visible
METAR KCQT 282247Z AUTO VRB04KT 10SM CLR 28/17 A2982 RMK AO2 SLPNO T02780167 $
Pressure 29.82 in
Visibility 10.0 miles
Clouds Clear
Heat Index 89 °F
Dew Point 59 °F
Humidity 36%
Rainfall 0.00 in
Snow Depth Not available.
6:01 AM 7:56 PM
Waning Crescent, 28% visible
METAR KCQT 282247Z AUTO VRB04KT 10SM CLR 28/17 A2982 RMK AO2 SLPNO T02780167 $

10-Day Weather Forecast

Almanac

Astronomy

Jul. 28, 2016 Rise Set
Actual Time
Civil Twilight
Nautical Twilight
Astronomical Twilight
Moon
Length of Visible Light
Length of Day
Tomorrow will be .
, % of the Moon is Illuminated

Today's Extremes

State Highs State Lows

Community

WunderPhotos

Upload Photos

1,928,226 photos uploaded!

WunderBlog® & News

Nearby

Air Quality

  Air Quality AQ Index Pollutant
Not available.

Snow Depth

Station Depth Elevation

Earthquake Activity

City Distance Mag. Time & Date
Minimum magnitude displayed is 2.5.

Coastal Water Temperatures

Place Temperature

Stations

Nearby Weather Stations

Station Location Temp. Windchill Dew Point Humidity Wind Precip. Elev Updated Type
                   

Watches & Warnings

There are currently no watches in effect.